PGT7828 LTFJ-LTBJ
Flight info
| Callsign | PGT7828 |
|---|---|
| Flight time | 0h 44m |
| Altitude | 32000 |
| Route | ROXUK T409 NUMTI DCT KULAR |
| Aircraft | A320/M-SDE3FGHIRWY/LB1 |
Departure
| Time | 2026-05-07 06:12 |
|---|---|
| Airport | Istanbul Sabiha Gökçen International Airport (LTFJ) |
Arrival
| Time | 2026-05-07 06:56 |
|---|---|
| Airport | Adnan Menderes International Airport (LTBJ) |
| Time | Latitude | Longitude | Altitude | Speed | Heading |
|---|---|---|---|---|---|
| 2026-05-07 05:49 | 40.90890 | 29.31882 | 310 ft | 0 kts | 244° |
| 2026-05-07 06:03 | 40.90900 | 29.31907 | 311 ft | 4 kts | 238° |
| 2026-05-07 06:03 | 40.90916 | 29.31934 | 310 ft | 4 kts | 212° |
| 2026-05-07 06:03 | 40.90936 | 29.31941 | 309 ft | 2 kts | 154° |
| 2026-05-07 06:03 | 40.90937 | 29.31940 | 309 ft | 0 kts | 154° |
| 2026-05-07 06:06 | 40.90952 | 29.31930 | 310 ft | 8 kts | 154° |
| 2026-05-07 06:06 | 40.90965 | 29.31922 | 309 ft | 0 kts | 154° |
| 2026-05-07 06:07 | 40.90953 | 29.31930 | 310 ft | 8 kts | 154° |
| 2026-05-07 06:07 | 40.90882 | 29.31975 | 311 ft | 11 kts | 154° |
| 2026-05-07 06:08 | 40.90838 | 29.32044 | 311 ft | 9 kts | 115° |
| 2026-05-07 06:08 | 40.90792 | 29.32085 | 311 ft | 7 kts | 155° |
| 2026-05-07 06:08 | 40.90750 | 29.32111 | 310 ft | 6 kts | 153° |
| 2026-05-07 06:08 | 40.90718 | 29.32138 | 311 ft | 5 kts | 130° |
| 2026-05-07 06:09 | 40.90720 | 29.32170 | 311 ft | 3 kts | 66° |
| 2026-05-07 06:09 | 40.90728 | 29.32193 | 311 ft | 3 kts | 66° |
| 2026-05-07 06:09 | 40.90739 | 29.32230 | 311 ft | 4 kts | 72° |
| 2026-05-07 06:09 | 40.90733 | 29.32258 | 311 ft | 4 kts | 127° |
| 2026-05-07 06:10 | 40.90687 | 29.32293 | 311 ft | 9 kts | 154° |
| 2026-05-07 06:10 | 40.90634 | 29.32327 | 311 ft | 8 kts | 154° |
| 2026-05-07 06:10 | 40.90607 | 29.32377 | 311 ft | 6 kts | 108° |
| 2026-05-07 06:10 | 40.90572 | 29.32426 | 311 ft | 11 kts | 151° |
| 2026-05-07 06:11 | 40.90501 | 29.32472 | 312 ft | 10 kts | 153° |
| 2026-05-07 06:11 | 40.90437 | 29.32482 | 313 ft | 12 kts | 208° |
| 2026-05-07 06:11 | 40.90369 | 29.32316 | 313 ft | 42 kts | 243° |
| 2026-05-07 06:11 | 40.90128 | 29.31665 | 312 ft | 114 kts | 244° |
| 2026-05-07 06:12 | 40.89694 | 29.30493 | 333 ft | 166 kts | 243° |
| 2026-05-07 06:12 | 40.89185 | 29.29128 | 1014 ft | 165 kts | 243° |
| 2026-05-07 06:12 | 40.88688 | 29.27767 | 1820 ft | 164 kts | 244° |
| 2026-05-07 06:12 | 40.88191 | 29.26362 | 2407 ft | 178 kts | 245° |
| 2026-05-07 06:13 | 40.87629 | 29.24786 | 2795 ft | 201 kts | 245° |
| 2026-05-07 06:13 | 40.86994 | 29.23007 | 3232 ft | 227 kts | 245° |
| 2026-05-07 06:13 | 40.86293 | 29.21053 | 3828 ft | 243 kts | 246° |
| 2026-05-07 06:13 | 40.85561 | 29.19018 | 3979 ft | 246 kts | 246° |
| 2026-05-07 06:14 | 40.84805 | 29.16995 | 4005 ft | 246 kts | 240° |
| 2026-05-07 06:14 | 40.83543 | 29.15497 | 4008 ft | 251 kts | 204° |
| 2026-05-07 06:14 | 40.81753 | 29.15334 | 4276 ft | 275 kts | 168° |
| 2026-05-07 06:14 | 40.79953 | 29.16220 | 5306 ft | 278 kts | 155° |
| 2026-05-07 06:15 | 40.78226 | 29.17434 | 6241 ft | 284 kts | 152° |
| 2026-05-07 06:15 | 40.76493 | 29.18754 | 7099 ft | 291 kts | 151° |
| 2026-05-07 06:15 | 40.74719 | 29.20075 | 7981 ft | 296 kts | 152° |
| 2026-05-07 06:15 | 40.72886 | 29.21366 | 8873 ft | 301 kts | 153° |
| 2026-05-07 06:16 | 40.71004 | 29.22621 | 9772 ft | 305 kts | 154° |
| 2026-05-07 06:16 | 40.69062 | 29.23862 | 10397 ft | 320 kts | 154° |
| 2026-05-07 06:16 | 40.66977 | 29.25164 | 10704 ft | 343 kts | 155° |
| 2026-05-07 06:16 | 40.64774 | 29.26526 | 11310 ft | 354 kts | 155° |
| 2026-05-07 06:17 | 40.62528 | 29.27913 | 12093 ft | 359 kts | 155° |
| 2026-05-07 06:17 | 40.60278 | 29.29305 | 12889 ft | 364 kts | 155° |
| 2026-05-07 06:17 | 40.57975 | 29.30732 | 13676 ft | 368 kts | 154° |
| 2026-05-07 06:17 | 40.55616 | 29.32198 | 14393 ft | 372 kts | 154° |
| 2026-05-07 06:18 | 40.53293 | 29.33641 | 15063 ft | 376 kts | 154° |
| 2026-05-07 06:18 | 40.50912 | 29.35117 | 15735 ft | 380 kts | 154° |
| 2026-05-07 06:18 | 40.48522 | 29.36673 | 16355 ft | 386 kts | 149° |
| 2026-05-07 06:18 | 40.46314 | 29.38702 | 16989 ft | 390 kts | 140° |
| 2026-05-07 06:19 | 40.44189 | 29.40942 | 17651 ft | 394 kts | 140° |
| 2026-05-07 06:19 | 40.42037 | 29.43203 | 17976 ft | 398 kts | 140° |
| 2026-05-07 06:19 | 40.39870 | 29.45468 | 18034 ft | 398 kts | 141° |
| 2026-05-07 06:19 | 40.37703 | 29.47721 | 18036 ft | 397 kts | 141° |
| 2026-05-07 06:20 | 40.35537 | 29.49969 | 18035 ft | 397 kts | 141° |
| 2026-05-07 06:20 | 40.33359 | 29.52232 | 18236 ft | 402 kts | 141° |
| 2026-05-07 06:20 | 40.31169 | 29.54511 | 18908 ft | 403 kts | 141° |
| 2026-05-07 06:20 | 40.28973 | 29.56798 | 19572 ft | 404 kts | 141° |
| 2026-05-07 06:21 | 40.26758 | 29.59102 | 20110 ft | 409 kts | 141° |
| 2026-05-07 06:21 | 40.24520 | 29.61428 | 20639 ft | 413 kts | 141° |
| 2026-05-07 06:21 | 40.22133 | 29.63559 | 21137 ft | 418 kts | 150° |
| 2026-05-07 06:21 | 40.19474 | 29.65145 | 21633 ft | 423 kts | 161° |
| 2026-05-07 06:22 | 40.16619 | 29.66105 | 22124 ft | 426 kts | 172° |
| 2026-05-07 06:22 | 40.10699 | 29.67311 | 23106 ft | 435 kts | 172° |
| 2026-05-07 06:22 | 40.07693 | 29.67939 | 23586 ft | 440 kts | 172° |
| 2026-05-07 06:23 | 40.04659 | 29.68580 | 24007 ft | 443 kts | 172° |
| 2026-05-07 06:23 | 40.01602 | 29.69230 | 24398 ft | 447 kts | 172° |
| 2026-05-07 06:23 | 39.98516 | 29.69881 | 24815 ft | 450 kts | 172° |
| 2026-05-07 06:23 | 39.95412 | 29.70522 | 25219 ft | 453 kts | 174° |
| 2026-05-07 06:24 | 39.92263 | 29.70739 | 25605 ft | 454 kts | 185° |
| 2026-05-07 06:24 | 39.89132 | 29.70266 | 25992 ft | 453 kts | 195° |
| 2026-05-07 06:24 | 39.86115 | 29.69126 | 26389 ft | 451 kts | 205° |
| 2026-05-07 06:24 | 39.83295 | 29.67370 | 26787 ft | 448 kts | 215° |
| 2026-05-07 06:25 | 39.80619 | 29.65273 | 27172 ft | 450 kts | 216° |
| 2026-05-07 06:25 | 39.77934 | 29.63170 | 27571 ft | 452 kts | 216° |
| 2026-05-07 06:25 | 39.75228 | 29.61059 | 27978 ft | 455 kts | 216° |
| 2026-05-07 06:25 | 39.72504 | 29.58937 | 28365 ft | 458 kts | 216° |
| 2026-05-07 06:26 | 39.69767 | 29.56807 | 28755 ft | 460 kts | 216° |
| 2026-05-07 06:26 | 39.67014 | 29.54667 | 29109 ft | 463 kts | 216° |
| 2026-05-07 06:26 | 39.64249 | 29.52523 | 29509 ft | 464 kts | 216° |
| 2026-05-07 06:26 | 39.61501 | 29.50326 | 29911 ft | 464 kts | 217° |
| 2026-05-07 06:27 | 39.58782 | 29.48041 | 30266 ft | 466 kts | 219° |
| 2026-05-07 06:27 | 39.56088 | 29.45698 | 30554 ft | 467 kts | 219° |
| 2026-05-07 06:27 | 39.53395 | 29.43323 | 30830 ft | 470 kts | 219° |
| 2026-05-07 06:27 | 39.50687 | 29.40945 | 31100 ft | 472 kts | 219° |
| 2026-05-07 06:28 | 39.47957 | 29.38570 | 31394 ft | 473 kts | 219° |
| 2026-05-07 06:28 | 39.45207 | 29.36209 | 31673 ft | 476 kts | 218° |
| 2026-05-07 06:28 | 39.42437 | 29.33861 | 32048 ft | 475 kts | 218° |
| 2026-05-07 06:28 | 39.39668 | 29.31530 | 32159 ft | 473 kts | 218° |
| 2026-05-07 06:29 | 39.36954 | 29.29255 | 32186 ft | 459 kts | 218° |
| 2026-05-07 06:29 | 39.34299 | 29.27024 | 32176 ft | 453 kts | 218° |
| 2026-05-07 06:29 | 39.29065 | 29.22574 | 32179 ft | 449 kts | 218° |
| 2026-05-07 06:30 | 39.23863 | 29.18141 | 32184 ft | 448 kts | 218° |
| 2026-05-07 06:30 | 39.18650 | 29.13729 | 32185 ft | 448 kts | 218° |
| 2026-05-07 06:31 | 39.13431 | 29.09350 | 32182 ft | 447 kts | 217° |
| 2026-05-07 06:31 | 39.08224 | 29.04978 | 32180 ft | 447 kts | 218° |
| 2026-05-07 06:32 | 39.03025 | 29.00600 | 32181 ft | 447 kts | 218° |
| 2026-05-07 06:32 | 38.97823 | 28.96223 | 32185 ft | 446 kts | 218° |
| 2026-05-07 06:33 | 38.92619 | 28.91875 | 32182 ft | 446 kts | 217° |
| 2026-05-07 06:33 | 38.87420 | 28.87533 | 32192 ft | 446 kts | 217° |
| 2026-05-07 06:34 | 38.82219 | 28.83196 | 32188 ft | 445 kts | 217° |
| 2026-05-07 06:34 | 38.77026 | 28.78879 | 32195 ft | 445 kts | 217° |
| 2026-05-07 06:35 | 38.71833 | 28.74566 | 32196 ft | 445 kts | 217° |
| 2026-05-07 06:35 | 38.66680 | 28.70287 | 32189 ft | 444 kts | 217° |
| 2026-05-07 06:36 | 38.61487 | 28.65920 | 32177 ft | 452 kts | 221° |
| 2026-05-07 06:36 | 38.57189 | 28.60150 | 31583 ft | 437 kts | 240° |
| 2026-05-07 06:37 | 38.55692 | 28.56777 | 29747 ft | 440 kts | 249° |
| 2026-05-07 06:37 | 38.54385 | 28.53188 | 27616 ft | 451 kts | 249° |
| 2026-05-07 06:37 | 38.53054 | 28.49524 | 25926 ft | 454 kts | 249° |
| 2026-05-07 06:37 | 38.51739 | 28.45949 | 25301 ft | 432 kts | 249° |
| 2026-05-07 06:38 | 38.50483 | 28.42603 | 25080 ft | 404 kts | 249° |
| 2026-05-07 06:38 | 38.49286 | 28.39450 | 24834 ft | 389 kts | 249° |
| 2026-05-07 06:38 | 38.48115 | 28.36363 | 24583 ft | 384 kts | 250° |
| 2026-05-07 06:38 | 38.46961 | 28.33295 | 24360 ft | 384 kts | 250° |
| 2026-05-07 06:39 | 38.45815 | 28.30231 | 24130 ft | 382 kts | 250° |
| 2026-05-07 06:39 | 38.44888 | 28.27144 | 23904 ft | 374 kts | 260° |
| 2026-05-07 06:39 | 38.44397 | 28.23924 | 23664 ft | 369 kts | 266° |
| 2026-05-07 06:39 | 38.43988 | 28.20700 | 23393 ft | 368 kts | 265° |
| 2026-05-07 06:40 | 38.43565 | 28.17487 | 23119 ft | 367 kts | 265° |
| 2026-05-07 06:40 | 38.43136 | 28.14293 | 22848 ft | 364 kts | 265° |
| 2026-05-07 06:40 | 38.42706 | 28.11135 | 22424 ft | 360 kts | 265° |
| 2026-05-07 06:40 | 38.42283 | 28.08003 | 21947 ft | 357 kts | 265° |
| 2026-05-07 06:41 | 38.41863 | 28.04891 | 21459 ft | 355 kts | 265° |
| 2026-05-07 06:41 | 38.41443 | 28.01790 | 20977 ft | 354 kts | 265° |
| 2026-05-07 06:41 | 38.41031 | 27.98705 | 20491 ft | 353 kts | 265° |
| 2026-05-07 06:41 | 38.40621 | 27.95623 | 19999 ft | 352 kts | 265° |
| 2026-05-07 06:42 | 38.40211 | 27.92552 | 19512 ft | 351 kts | 265° |
| 2026-05-07 06:42 | 38.39800 | 27.89487 | 19020 ft | 351 kts | 265° |
| 2026-05-07 06:42 | 38.39388 | 27.86428 | 18540 ft | 351 kts | 264° |
| 2026-05-07 06:42 | 38.38972 | 27.83360 | 18009 ft | 351 kts | 264° |
| 2026-05-07 06:43 | 38.38557 | 27.80306 | 17525 ft | 349 kts | 264° |
| 2026-05-07 06:43 | 38.38143 | 27.77271 | 17061 ft | 347 kts | 264° |
| 2026-05-07 06:43 | 38.37739 | 27.74296 | 16596 ft | 345 kts | 264° |
| 2026-05-07 06:43 | 38.37332 | 27.71290 | 16130 ft | 344 kts | 264° |
| 2026-05-07 06:44 | 38.36925 | 27.68299 | 15673 ft | 342 kts | 264° |
| 2026-05-07 06:44 | 38.36521 | 27.65325 | 15218 ft | 340 kts | 264° |
| 2026-05-07 06:44 | 38.36114 | 27.62353 | 14748 ft | 340 kts | 264° |
| 2026-05-07 06:44 | 38.35706 | 27.59393 | 14296 ft | 339 kts | 264° |
| 2026-05-07 06:45 | 38.35297 | 27.56436 | 13817 ft | 338 kts | 263° |
| 2026-05-07 06:45 | 38.34890 | 27.53493 | 13332 ft | 336 kts | 263° |
| 2026-05-07 06:45 | 38.34493 | 27.50622 | 12875 ft | 334 kts | 263° |
| 2026-05-07 06:45 | 38.34092 | 27.47717 | 12408 ft | 331 kts | 263° |
| 2026-05-07 06:46 | 38.33768 | 27.45391 | 12036 ft | 329 kts | 263° |
| 2026-05-07 06:46 | 38.33368 | 27.42536 | 11576 ft | 327 kts | 263° |
| 2026-05-07 06:46 | 38.32970 | 27.39690 | 11122 ft | 325 kts | 263° |
| 2026-05-07 06:46 | 38.32524 | 27.36868 | 10614 ft | 326 kts | 260° |
| 2026-05-07 06:47 | 38.32191 | 27.35005 | 10348 ft | 325 kts | 259° |
| 2026-05-07 06:47 | 38.31670 | 27.32261 | 10226 ft | 313 kts | 259° |
| 2026-05-07 06:47 | 38.30958 | 27.29702 | 10105 ft | 305 kts | 240° |
| 2026-05-07 06:47 | 38.28851 | 27.27518 | 9929 ft | 296 kts | 199° |
| 2026-05-07 06:48 | 38.26870 | 27.27279 | 9604 ft | 284 kts | 171° |
| 2026-05-07 06:48 | 38.24953 | 27.27800 | 9022 ft | 280 kts | 166° |
| 2026-05-07 06:48 | 38.23677 | 27.28184 | 8638 ft | 278 kts | 166° |
| 2026-05-07 06:48 | 38.21807 | 27.28761 | 8068 ft | 274 kts | 165° |
| 2026-05-07 06:49 | 38.19966 | 27.29329 | 7528 ft | 270 kts | 165° |
| 2026-05-07 06:49 | 38.18157 | 27.29881 | 7081 ft | 264 kts | 165° |
| 2026-05-07 06:49 | 38.16378 | 27.30416 | 6707 ft | 261 kts | 165° |
| 2026-05-07 06:49 | 38.14616 | 27.30942 | 6327 ft | 259 kts | 166° |
| 2026-05-07 06:50 | 38.12861 | 27.31464 | 5942 ft | 259 kts | 166° |
| 2026-05-07 06:50 | 38.11125 | 27.31982 | 5743 ft | 251 kts | 166° |
| 2026-05-07 06:50 | 38.09418 | 27.32152 | 5472 ft | 247 kts | 191° |
| 2026-05-07 06:50 | 38.07922 | 27.31165 | 5184 ft | 244 kts | 225° |
| 2026-05-07 06:51 | 38.07112 | 27.29309 | 4856 ft | 243 kts | 256° |
| 2026-05-07 06:51 | 38.06743 | 27.27221 | 4498 ft | 242 kts | 257° |
| 2026-05-07 06:51 | 38.06385 | 27.25123 | 4103 ft | 243 kts | 263° |
| 2026-05-07 06:51 | 38.06655 | 27.23180 | 3915 ft | 236 kts | 300° |
| 2026-05-07 06:52 | 38.07692 | 27.21598 | 5567 ft | 236 kts | 324° |
| 2026-05-07 06:52 | 38.09203 | 27.20794 | 5150 ft | 235 kts | 347° |
| 2026-05-07 06:52 | 38.10834 | 27.20442 | 4520 ft | 240 kts | 353° |
| 2026-05-07 06:52 | 38.12498 | 27.20183 | 3964 ft | 241 kts | 353° |
| 2026-05-07 06:53 | 38.14142 | 27.19893 | 3541 ft | 235 kts | 351° |
| 2026-05-07 06:53 | 38.15762 | 27.19601 | 2863 ft | 236 kts | 352° |
| 2026-05-07 06:53 | 38.17368 | 27.19250 | 2481 ft | 227 kts | 348° |
| 2026-05-07 06:53 | 38.18843 | 27.18825 | 2184 ft | 209 kts | 347° |
| 2026-05-07 06:54 | 38.20203 | 27.18416 | 1930 ft | 192 kts | 347° |
| 2026-05-07 06:54 | 38.21431 | 27.18045 | 1690 ft | 172 kts | 346° |
| 2026-05-07 06:54 | 38.22528 | 27.17715 | 1451 ft | 154 kts | 347° |
| 2026-05-07 06:54 | 38.23540 | 27.17415 | 1233 ft | 144 kts | 347° |
| 2026-05-07 06:55 | 38.24503 | 27.17112 | 1093 ft | 141 kts | 347° |
| 2026-05-07 06:55 | 38.25446 | 27.16843 | 895 ft | 141 kts | 348° |
| 2026-05-07 06:55 | 38.26397 | 27.16558 | 695 ft | 140 kts | 347° |
| 2026-05-07 06:55 | 38.27351 | 27.16266 | 546 ft | 142 kts | 347° |
| 2026-05-07 06:56 | 38.28299 | 27.15983 | 415 ft | 132 kts | 346° |
| 2026-05-07 06:56 | 38.29033 | 27.15760 | 415 ft | 84 kts | 347° |
| 2026-05-07 06:56 | 38.29415 | 27.15644 | 414 ft | 17 kts | 346° |
| 2026-05-07 06:56 | 38.29421 | 27.15577 | 414 ft | 7 kts | 245° |
| 2026-05-07 06:57 | 38.29408 | 27.15524 | 420 ft | 5 kts | 257° |
| 2026-05-07 06:57 | 38.29402 | 27.15488 | 413 ft | 3 kts | 257° |
| 2026-05-07 06:57 | 38.29398 | 27.15467 | 420 ft | 2 kts | 257° |
| 2026-05-07 06:57 | 38.29396 | 27.15458 | 421 ft | 1 kts | 257° |
| 2026-05-07 06:58 | 38.29388 | 27.15410 | 413 ft | 8 kts | 258° |
| 2026-05-07 06:58 | 38.29374 | 27.15329 | 409 ft | 12 kts | 256° |
| 2026-05-07 06:58 | 38.29350 | 27.15205 | 411 ft | 15 kts | 257° |
| 2026-05-07 06:58 | 38.29323 | 27.15141 | 411 ft | 6 kts | 213° |
| 2026-05-07 06:59 | 38.29303 | 27.15103 | 411 ft | 5 kts | 252° |
| 2026-05-07 06:59 | 38.29296 | 27.15070 | 411 ft | 1 kts | 256° |
| 2026-05-07 06:59 | 38.29296 | 27.15069 | 411 ft | 0 kts | 256° |